Disclaimer

Please do not use the information listed here in-flight or in-navigation, as they are not provided to us by the airports but are provided by volunteers, so they might be outdated.

Search


Regions


Airport information page

Radio informations:
Tower (TWR) - 119.0 MHz

Airport informations:
Latitude: 36° 12' 45.57" N
Longitude: 001° 19' 54.39" E
Elevation: 463 feet - 141 meters
Operating hours: Remarks
Operating agency: Military
Timezone: UTC+1 - Dates notified by NOTAM
Fuel: N/A

Runway information:
07/25 - 5413 x 98 feet< - >1650 x 30 meters

Recent METARs:
DAOI 130200Z 00000KT 8000 NSC 09/09 Q1018
DAOI 130300Z 29003KT 8000 SCT026 10/09 Q1018
DAOI 130300Z 29003KT 8000 SCT026 10/09 Q1018

Airport on the map: